Pittsburg, NH

11:25 PM EDT on July 28, 2016 (GMT -0400)
Hill Top View | | Change Station

Elev 1886 ft 45.06 °N, 71.33 °W | Updated 55 seconds ago

Partly Cloudy
Partly Cloudy
64.0 °F
Feels Like 64.0 °F
N
0.0
Wind Variable Wind from SSW
Gusts 0.0 mph

Today
High -- | Low -- °F
--% Chance of Precip.
Yesterday
High -- | Low -- °F
Precip. -- in
Pressure 29.93 in
Visibility 10.0 miles
Clouds Few 12000 ft
Dew Point 61 °F
Humidity 91%
Rainfall 0.17 in
Snow Depth Not available.
5:26 AM 8:16 PM
Waning Crescent, 26% visible
METAR KBML 290252Z AUTO 00000KT 10SM FEW120 19/17 A2995 RMK AO2 SLP135 T01890167 51006
Pressure 29.93 in
Visibility 10.0 miles
Clouds Few 12000 ft
Dew Point 61 °F
Humidity 91%
Rainfall 0.17 in
Snow Depth Not available.
5:26 AM 8:16 PM
Waning Crescent, 26% visible
METAR KBML 290252Z AUTO 00000KT 10SM FEW120 19/17 A2995 RMK AO2 SLP135 T01890167 51006

10-Day Weather Forecast

Almanac

Astronomy

Jul. 28, 2016 Rise Set
Actual Time
Civil Twilight
Nautical Twilight
Astronomical Twilight
Moon
Length of Visible Light
Length of Day
Tomorrow will be .
, % of the Moon is Illuminated

Today's Extremes

State Highs State Lows

Community

WunderPhotos

Upload Photos

1,928,282 photos uploaded!

WunderBlog® & News

Nearby

Air Quality

  Air Quality AQ Index Pollutant
Not available.

Snow Depth

Station Depth Elevation

Earthquake Activity

City Distance Mag. Time & Date
Minimum magnitude displayed is 2.5.

Coastal Water Temperatures

Place Temperature

Stations

Nearby Weather Stations

Station Location Temp. Windchill Dew Point Humidity Wind Precip. Elev Updated Type
                   

Watches & Warnings

There are currently no watches in effect.